Terminal Aerodrome Forecast
Issued by NWS Wilmington, OH

Current Version | Previous Version | Graphics & Text | Print | Product List | Glossary On
Versions: 1 2 3 4 5 6 7 8 9 10 11 12 13 14 15 16 17 18
000
FTUS41 KILN 232349
TAFILN
TAF
KILN 232349Z 2400/2424 13005KT P6SM BKN120
     FM241000 13005KT P6SM BKN012
     FM241600 12006KT 6SM -SHRA OVC035
     FM241800 12007KT 4SM SHRA SCT020 OVC035
     FM242200 10006KT 6SM -SHRA OVC020=

USA.gov is the U.S. government's official web portal to all federal, state and local government web resources and services.